Cylinder, Iowa
Current Conditions -  °F | °C
As of 6:15 PM on Thursday 27 Nov 2014 (Local Time) from KAXA Reporting Station
Overcast Overcast  
Wind Chill: -11°   Ceiling: 4100
Heat Index:   Visibility: 10mi
Dew Point: -4°   Wind: 9mph
Humidity: 72%   Direction: 130°SE
Pressure: 30.35"   Gusts: NA
Location:  43.09°N, 94.55°W
Report Text: KAXA 280015Z AUTO 13008KT 10SM OVC041 M16/M20 A3035 RMK AO2
Loading
Personal Weather Stations






























Interactive Weather Map New forecast layout! Learn more

10-Day Weather Forecast

Advertisements
Track Severe Weather on mobile